Magsenger 19 — VRJY9 — position and weather

sailwx.info

Track history (hours):
 
Tides and Currents Weather Stations Pressure Air Temp Water Temp Dewpoint Dewpoint Depression Visibility Wind Speed Wind Dir Waves Ship Positions

Magsenger 19

Last reported at 2018-May-23 00:37 UTC. Time now 2018-Jun-18 05:23 UTC.
Position N 01°16' E 104°08'.
Warning: this ship's position is 26 days out of date.

Length 254 m; draft 8 m.

Type: Cargo ship. MMSI: 477638400.

Date/timePositionNaut miles runAvg speedWind from/ knotsBaromVisibWave heightAir tempDewpointWater temp
2018-May-23 00:37N 01°16' E 104°08'213.5
2018-May-23 00:26N 01°15' E 104°06'510.8
2018-May-23 00:00N 01°16' E 104°01'3 5.7
2018-May-22 23:30N 01°17' E 103°58'0 0.2
2018-May-22 22:58N 01°17' E 103°59'0 0.0
2018-May-22 22:28N 01°17' E 103°59'0 0.1
2018-May-22 21:58N 01°17' E 103°58'0 0.1
2018-May-22 21:10N 01°16' E 103°58'0 0.2
2018-May-22 20:55N 01°16' E 103°58'0 0.0
2018-May-22 19:01N 01°17' E 103°58'0 0.0
2018-May-22 18:52N 01°17' E 103°58'0 0.0
2018-May-22 18:28N 01°17' E 103°58'0 0.0
2018-May-22 17:58N 01°17' E 103°58'0 0.1
2018-May-22 17:16N 01°17' E 103°58'0 0.0
2018-May-22 16:52N 01°17' E 103°58'0 0.0
2018-May-22 15:46N 01°17' E 103°58'0 0.0
2018-May-22 15:16N 01°17' E 103°58'0 0.0
2018-May-22 14:52N 01°17' E 103°58'0 0.0
2018-May-22 14:28N 01°17' E 103°58'0 0.0
2018-May-22 13:55N 01°17' E 103°58'0 0.0
2018-May-22 13:25N 01°17' E 103°58'0 0.0
2018-May-22 12:46N 01°17' E 103°58'0 0.2
2018-May-22 12:25N 01°17' E 103°58'0 0.0
2018-May-22 11:52N 01°17' E 103°58'0 0.0
2018-May-22 11:28N 01°17' E 103°58'0 0.0
2018-May-22 09:49N 01°17' E 103°58'1 2.0
2018-May-22 09:14N 01°16' E 103°57'0 1.9
2018-May-22 08:59N 01°16' E 103°57'  
2018-May-13 12:29N 35°59' E 120°30'1110.3
2018-May-13 11:23N 36°02' E 120°17'4 7.6
2018-May-13 10:55N 36°05' E 120°18'1 0.1
2018-May-13 02:50N 36°06' E 120°19'0 0.0
2018-May-13 02:25N 36°06' E 120°19'0 0.0
2018-May-13 01:56N 36°06' E 120°19'0 0.0
2018-May-13 00:53N 36°06' E 120°19'  
Track history (hours):
 
Tides and Currents Weather Stations Pressure Air Temp Water Temp Dewpoint Dewpoint Depression Visibility Wind Speed Wind Dir Waves Ship Positions

Magsenger 19

Last reported at 2018-May-23 00:37 UTC. Time now 2018-Jun-18 05:23 UTC.
Position N 01°16' E 104°08'.
Warning: this ship's position is 26 days out of date.

Length 254 m; draft 8 m.

Type: Cargo ship. MMSI: 477638400.

Date/timePositionNaut miles runAvg speedWind from/ knotsBaromVisibWave heightAir tempDewpointWater temp
2018-May-23 00:37N 01°16' E 104°08'213.5
2018-May-23 00:26N 01°15' E 104°06'510.8
2018-May-23 00:00N 01°16' E 104°01'3 5.7
2018-May-22 23:30N 01°17' E 103°58'0 0.2
2018-May-22 22:58N 01°17' E 103°59'0 0.0
2018-May-22 22:28N 01°17' E 103°59'0 0.1
2018-May-22 21:58N 01°17' E 103°58'0 0.1
2018-May-22 21:10N 01°16' E 103°58'0 0.2
2018-May-22 20:55N 01°16' E 103°58'0 0.0
2018-May-22 19:01N 01°17' E 103°58'0 0.0
2018-May-22 18:52N 01°17' E 103°58'0 0.0
2018-May-22 18:28N 01°17' E 103°58'0 0.0
2018-May-22 17:58N 01°17' E 103°58'0 0.1
2018-May-22 17:16N 01°17' E 103°58'0 0.0
2018-May-22 16:52N 01°17' E 103°58'0 0.0
2018-May-22 15:46N 01°17' E 103°58'0 0.0
2018-May-22 15:16N 01°17' E 103°58'0 0.0
2018-May-22 14:52N 01°17' E 103°58'0 0.0
2018-May-22 14:28N 01°17' E 103°58'0 0.0
2018-May-22 13:55N 01°17' E 103°58'0 0.0
2018-May-22 13:25N 01°17' E 103°58'0 0.0
2018-May-22 12:46N 01°17' E 103°58'0 0.2
2018-May-22 12:25N 01°17' E 103°58'0 0.0
2018-May-22 11:52N 01°17' E 103°58'0 0.0
2018-May-22 11:28N 01°17' E 103°58'0 0.0
2018-May-22 09:49N 01°17' E 103°58'1 2.0
2018-May-22 09:14N 01°16' E 103°57'0 1.9
2018-May-22 08:59N 01°16' E 103°57'  
2018-May-13 12:29N 35°59' E 120°30'1110.3
2018-May-13 11:23N 36°02' E 120°17'4 7.6
2018-May-13 10:55N 36°05' E 120°18'1 0.1
2018-May-13 02:50N 36°06' E 120°19'0 0.0
2018-May-13 02:25N 36°06' E 120°19'0 0.0
2018-May-13 01:56N 36°06' E 120°19'0 0.0
2018-May-13 00:53N 36°06' E 120°19'  

Dump ship's entire track history